Alstead Center, New Hampshire
Current Conditions -  °F | °C
As of 10:15 PM on Wednesday 22 Oct 2014 (Local Time) from KEEN Reporting Station
Overcast Overcast  
Wind Chill: 42°   Ceiling: 1700
Heat Index: 48°   Visibility: 10mi
Dew Point: 39°   Wind: 15mph
Humidity: 71%   Direction: 20°NNE
Pressure: 29.92"   Gusts: 21mph
Location:  43.1141°N, 72.3097°W
Report Text: KEEN 230215Z AUTO 02013G18KT 10SM OVC017 09/04 A2992 RMK AO1
Loading
Personal Weather Stations






























Interactive Weather Map
Tropical Storm Tracking
New forecast layout! Learn more

10-Day Weather Forecast

Advertisements
Track Severe Weather on mobile